createdAt,value
2022-08-24T00:03:19.369Z,27.87
2022-08-24T00:08:13.223Z,27.92
2022-08-24T00:13:06.931Z,27.97
2022-08-24T00:18:01.380Z,28.00
2022-08-24T00:22:55.575Z,27.89
2022-08-24T00:27:49.748Z,28.00
2022-08-24T00:32:43.475Z,28.04
2022-08-24T00:37:38.207Z,27.84
2022-08-24T00:42:31.397Z,27.79
2022-08-24T00:47:42.338Z,27.97
2022-08-24T00:52:51.830Z,27.84
2022-08-24T00:57:50.528Z,27.94
2022-08-24T01:02:49.840Z,27.99
2022-08-24T01:07:44.599Z,27.98
2022-08-24T01:12:52.288Z,27.91
2022-08-24T01:18:12.945Z,28.02
2022-08-24T01:23:40.052Z,27.99
2022-08-24T01:28:37.237Z,27.99
2022-08-24T01:33:32.819Z,28.00
2022-08-24T01:38:27.032Z,27.99
2022-08-24T01:43:21.053Z,28.01
2022-08-24T01:48:22.765Z,28.00
2022-08-24T01:53:20.680Z,27.99
2022-08-24T01:58:13.807Z,27.90
2022-08-24T02:03:08.044Z,27.93
2022-08-24T02:08:02.387Z,27.80
2022-08-24T02:12:58.943Z,27.93
2022-08-24T02:17:53.273Z,27.92
2022-08-24T02:22:47.317Z,27.80
2022-08-24T02:27:46.391Z,27.83
2022-08-24T02:32:39.795Z,27.89
2022-08-24T02:37:33.572Z,27.87
2022-08-24T02:42:29.604Z,27.83
2022-08-24T02:47:23.063Z,27.70
2022-08-24T02:52:32.598Z,27.82
2022-08-24T02:57:25.971Z,27.80
2022-08-24T03:02:19.453Z,27.67
2022-08-24T03:07:12.761Z,27.68
2022-08-24T03:12:05.814Z,27.67
2022-08-24T03:17:03.970Z,27.67
2022-08-24T03:21:57.368Z,27.65
2022-08-24T03:26:51.731Z,27.76
2022-08-24T03:31:45.720Z,27.59
2022-08-24T03:36:39.800Z,27.64
2022-08-24T03:41:36.586Z,27.72
2022-08-24T03:46:33.277Z,27.72
2022-08-24T03:51:30.276Z,27.55
2022-08-24T03:56:23.636Z,27.60
2022-08-24T04:01:18.137Z,27.73
2022-08-24T04:06:12.377Z,27.73
2022-08-24T04:11:05.740Z,27.56
2022-08-24T04:16:06.020Z,27.58
2022-08-24T04:20:58.743Z,27.68
2022-08-24T04:25:52.915Z,27.61
2022-08-24T04:31:08.381Z,27.54
2022-08-24T04:36:09.971Z,27.61
2022-08-24T04:41:13.561Z,27.57
2022-08-24T04:46:08.512Z,27.58
2022-08-24T04:51:06.039Z,27.45
2022-08-24T04:55:59.483Z,27.59
2022-08-24T05:00:53.609Z,27.53
2022-08-24T05:05:50.169Z,27.55
2022-08-24T05:10:45.675Z,27.41
2022-08-24T05:15:47.544Z,27.55
2022-08-24T05:20:46.133Z,27.53
2022-08-24T05:25:40.854Z,27.39
2022-08-24T05:30:34.489Z,27.53
2022-08-24T05:35:28.532Z,27.37
2022-08-24T05:40:24.115Z,27.27
2022-08-24T05:45:21.012Z,26.91
2022-08-24T05:50:16.151Z,26.81
2022-08-24T05:55:11.671Z,26.80
2022-08-24T06:00:08.600Z,26.65
2022-08-24T06:05:11.152Z,26.80
2022-08-24T06:10:32.875Z,26.69
2022-08-24T06:15:20.504Z,26.76
2022-08-24T06:20:16.347Z,26.83
2022-08-24T06:25:30.488Z,26.80
2022-08-24T06:30:30.135Z,26.87
2022-08-24T06:35:25.325Z,26.84
2022-08-24T06:40:39.190Z,26.62
2022-08-24T06:45:33.613Z,26.87
2022-08-24T06:50:27.993Z,26.79
2022-08-24T06:55:21.859Z,26.77
2022-08-24T07:00:15.486Z,26.79
2022-08-24T07:05:08.891Z,26.93
2022-08-24T07:10:25.274Z,27.04
2022-08-24T07:15:23.492Z,26.99
2022-08-24T07:20:33.290Z,26.93
2022-08-24T07:25:50.498Z,27.06
2022-08-24T07:30:47.480Z,27.13
2022-08-24T07:35:42.168Z,26.98
2022-08-24T07:40:48.982Z,27.27
2022-08-24T07:45:49.171Z,27.11
2022-08-24T07:50:42.454Z,27.32
2022-08-24T07:55:35.260Z,27.37
2022-08-24T08:00:40.540Z,27.36
2022-08-24T08:05:41.373Z,27.35
2022-08-24T08:10:36.467Z,27.52
2022-08-24T08:15:32.581Z,27.56
2022-08-24T08:20:39.916Z,27.48
2022-08-24T08:25:55.349Z,27.63
2022-08-24T08:31:06.585Z,27.66
2022-08-24T08:36:12.036Z,27.56
2022-08-24T08:41:36.436Z,27.71
2022-08-24T08:47:07.960Z,27.76
2022-08-24T08:52:14.134Z,27.76
2022-08-24T08:57:17.974Z,27.75
2022-08-24T09:02:48.917Z,27.79
2022-08-24T09:08:15.367Z,27.54
2022-08-24T09:13:46.871Z,27.73
2022-08-24T09:19:31.593Z,27.65
2022-08-24T09:24:51.897Z,27.69
2022-08-24T09:30:24.235Z,27.54
2022-08-24T09:35:41.135Z,27.61
2022-08-24T09:41:28.077Z,27.69
2022-08-24T09:46:58.733Z,27.71
2022-08-24T09:52:19.131Z,27.76
2022-08-24T09:58:02.454Z,27.79
2022-08-24T10:03:36.108Z,27.78
2022-08-24T10:09:02.388Z,27.85
2022-08-24T10:14:25.904Z,27.79
2022-08-24T10:19:37.589Z,27.91
2022-08-24T10:24:39.787Z,27.94
2022-08-24T10:30:10.485Z,27.98
2022-08-24T10:35:49.227Z,27.97
2022-08-24T10:41:00.215Z,27.93
2022-08-24T10:46:11.641Z,27.93
2022-08-24T10:51:23.213Z,27.97
2022-08-24T10:56:39.284Z,27.99
2022-08-24T11:02:13.315Z,27.99
2022-08-24T11:07:06.860Z,28.01
2022-08-24T11:12:19.004Z,27.93
2022-08-24T11:17:39.663Z,27.89
2022-08-24T11:22:57.518Z,27.74
2022-08-24T11:27:53.513Z,27.66
2022-08-24T11:33:18.935Z,27.93
2022-08-24T11:38:37.049Z,27.92
2022-08-24T11:43:33.486Z,27.95
2022-08-24T11:48:43.600Z,28.01
2022-08-24T11:53:56.399Z,28.02
2022-08-24T11:59:01.074Z,28.00
2022-08-24T12:04:27.283Z,28.02
2022-08-24T12:09:35.333Z,27.98
2022-08-24T12:14:42.164Z,27.85
2022-08-24T12:19:41.911Z,28.01
2022-08-24T12:24:41.935Z,27.78
2022-08-24T12:29:45.588Z,27.81
2022-08-24T12:35:00.956Z,27.95
2022-08-24T12:39:58.966Z,27.83
2022-08-24T12:45:04.094Z,27.88
2022-08-24T12:50:25.114Z,28.01
2022-08-24T12:55:24.604Z,27.97
2022-08-24T13:00:26.063Z,27.85
2022-08-24T13:05:27.442Z,27.94
2022-08-24T13:10:29.042Z,27.92
2022-08-24T13:15:47.305Z,27.96
2022-08-24T13:20:46.199Z,27.97
2022-08-24T13:26:27.069Z,27.99
2022-08-24T13:31:52.695Z,27.97
2022-08-24T13:37:01.194Z,27.98
2022-08-24T13:42:26.254Z,27.99
2022-08-24T13:47:25.562Z,28.03
2022-08-24T13:52:57.491Z,27.91
2022-08-24T13:58:12.324Z,27.89
2022-08-24T14:03:20.476Z,28.02
2022-08-24T14:08:45.132Z,28.01
2022-08-24T14:14:01.620Z,28.02
2022-08-24T14:19:10.226Z,28.03
2022-08-24T14:24:10.982Z,27.94
2022-08-24T14:29:16.317Z,27.98
2022-08-24T14:34:31.992Z,28.07
2022-08-24T14:39:42.962Z,28.03
2022-08-24T14:44:48.692Z,28.05
2022-08-24T14:49:54.355Z,28.08
2022-08-24T14:55:13.412Z,27.99
2022-08-24T15:00:48.182Z,28.09
2022-08-24T15:06:25.666Z,28.09
2022-08-24T15:11:26.056Z,28.14
2022-08-24T15:16:26.620Z,28.07
2022-08-24T15:21:47.317Z,28.20
2022-08-24T15:27:02.197Z,28.17
2022-08-24T15:32:10.516Z,28.16
2022-08-24T15:37:03.740Z,28.06
2022-08-24T15:41:58.419Z,28.20
2022-08-24T15:46:56.582Z,28.08
2022-08-24T15:52:00.377Z,28.03
2022-08-24T15:57:25.660Z,28.25
2022-08-24T16:02:27.051Z,28.16
2022-08-24T16:07:31.957Z,28.25
2022-08-24T16:12:28.303Z,28.08
2022-08-24T16:17:32.730Z,28.28
2022-08-24T16:22:34.367Z,28.31
2022-08-24T16:28:19.213Z,28.36
2022-08-24T16:33:43.510Z,28.37
2022-08-24T16:38:38.647Z,28.36
2022-08-24T16:43:32.275Z,28.30
2022-08-24T16:48:32.565Z,28.30
2022-08-24T16:53:26.740Z,28.39
2022-08-24T16:58:27.321Z,28.25
2022-08-24T17:03:21.311Z,28.41
2022-08-24T17:08:15.007Z,28.27
2022-08-24T17:13:08.491Z,28.18
2022-08-24T17:18:06.349Z,28.42
2022-08-24T17:23:00.338Z,28.30
2022-08-24T17:27:55.123Z,28.44
2022-08-24T17:32:49.435Z,28.33
2022-08-24T17:37:44.032Z,28.40
2022-08-24T17:42:50.931Z,28.40
2022-08-24T17:47:45.953Z,28.33
2022-08-24T17:52:39.924Z,28.43
2022-08-24T17:57:38.006Z,28.29
2022-08-24T18:02:32.086Z,28.43
2022-08-24T18:07:49.638Z,28.46
2022-08-24T18:12:39.476Z,28.41
2022-08-24T18:17:40.605Z,28.35
2022-08-24T18:22:34.312Z,28.38
2022-08-24T18:27:31.056Z,28.49
2022-08-24T18:32:31.364Z,28.42
2022-08-24T18:37:25.174Z,28.57
2022-08-24T18:42:19.065Z,28.54
2022-08-24T18:47:14.841Z,28.56
2022-08-24T18:52:11.953Z,28.55
2022-08-24T18:57:07.895Z,28.46
2022-08-24T19:02:24.126Z,28.42
2022-08-24T19:07:18.548Z,28.49
2022-08-24T19:12:12.918Z,28.59
2022-08-24T19:17:07.190Z,28.56
2022-08-24T19:22:03.033Z,28.60
2022-08-24T19:27:01.994Z,28.59
2022-08-24T19:32:00.572Z,28.49
2022-08-24T19:36:54.989Z,28.64
2022-08-24T19:41:50.527Z,28.50
2022-08-24T19:46:46.793Z,28.52
2022-08-24T19:51:41.276Z,28.56
2022-08-24T19:56:36.371Z,28.48
2022-08-24T20:01:35.431Z,28.51
2022-08-24T20:06:31.290Z,28.53
2022-08-24T20:11:25.721Z,28.51
2022-08-24T20:16:20.926Z,28.50
2022-08-24T20:21:16.726Z,28.38
2022-08-24T20:26:12.466Z,28.51
2022-08-24T20:31:07.473Z,28.52
2022-08-24T20:36:02.580Z,28.42
2022-08-24T20:40:55.850Z,28.50
2022-08-24T20:46:10.557Z,28.54
2022-08-24T20:51:05.301Z,28.53
2022-08-24T20:56:03.411Z,28.56
2022-08-24T21:00:56.650Z,28.48
2022-08-24T21:05:53.114Z,28.60
2022-08-24T21:10:46.950Z,28.65
2022-08-24T21:15:42.235Z,28.52
2022-08-24T21:20:36.985Z,28.64
2022-08-24T21:25:36.760Z,28.62
2022-08-24T21:30:30.496Z,28.51
2022-08-24T21:35:28.545Z,28.51
2022-08-24T21:40:22.275Z,28.60
2022-08-24T21:45:15.928Z,28.66
2022-08-24T21:50:11.934Z,28.65
2022-08-24T21:55:11.720Z,28.64
2022-08-24T22:00:14.315Z,28.50
2022-08-24T22:05:07.596Z,28.63
2022-08-24T22:10:01.172Z,28.55
2022-08-24T22:14:56.666Z,28.53
2022-08-24T22:19:50.483Z,28.63
2022-08-24T22:24:45.475Z,28.45
2022-08-24T22:29:38.276Z,28.46
2022-08-24T22:34:31.752Z,28.47
2022-08-24T22:39:26.387Z,28.38
2022-08-24T22:44:20.029Z,28.60
2022-08-24T22:49:14.519Z,28.60
2022-08-24T22:54:09.048Z,28.36
2022-08-24T22:59:05.816Z,28.46
2022-08-24T23:04:01.595Z,28.33
2022-08-24T23:08:55.514Z,28.47
2022-08-24T23:13:49.860Z,28.55
2022-08-24T23:19:02.084Z,28.43
2022-08-24T23:23:55.860Z,28.41
2022-08-24T23:28:50.416Z,28.48
2022-08-24T23:33:45.075Z,28.46
2022-08-24T23:38:39.606Z,28.43
2022-08-24T23:43:35.486Z,28.34
2022-08-24T23:48:33.102Z,28.26
2022-08-24T23:53:27.892Z,28.38
2022-08-24T23:58:22.036Z,28.28
